FFT1 KJFK-KMDT
Flight info
| Callsign | FFT1 |
|---|---|
| Flight time | N/A |
| Altitude | 16000 |
| Route | RBV V276 KATVE DUMMR V162 HWANG |
| Aircraft | A388/J-SADE2E3FGHIJ3J4J5M1RWXY/LB1D1 |
Departure
| Time | 2026-05-07 02:18 |
|---|---|
| Airport | John F. Kennedy International Airport (KJFK) |
Arrival
| Time | N/A |
|---|---|
| Airport | Harrisburg International Airport (KMDT) |
| Time | Latitude | Longitude | Altitude | Speed | Heading |
|---|---|---|---|---|---|
| 2026-05-07 02:06 | 40.64228 | -73.79361 | 31 ft | 0 kts | 257° |
| 2026-05-07 02:06 | 40.64228 | -73.79365 | 31 ft | 2 kts | 257° |
| 2026-05-07 02:07 | 40.64227 | -73.79367 | 31 ft | 0 kts | 257° |
| 2026-05-07 02:07 | 40.64223 | -73.79394 | 27 ft | 7 kts | 257° |
| 2026-05-07 02:08 | 40.64226 | -73.79456 | 29 ft | 8 kts | 309° |
| 2026-05-07 02:08 | 40.64303 | -73.79500 | 30 ft | 15 kts | 2° |
| 2026-05-07 02:08 | 40.64424 | -73.79501 | 29 ft | 19 kts | 350° |
| 2026-05-07 02:08 | 40.64528 | -73.79513 | 28 ft | 15 kts | 356° |
| 2026-05-07 02:09 | 40.64632 | -73.79557 | 29 ft | 17 kts | 322° |
| 2026-05-07 02:09 | 40.64729 | -73.79647 | 24 ft | 16 kts | 327° |
| 2026-05-07 02:09 | 40.64836 | -73.79704 | 24 ft | 17 kts | 353° |
| 2026-05-07 02:09 | 40.64951 | -73.79703 | 30 ft | 16 kts | 4° |
| 2026-05-07 02:10 | 40.65044 | -73.79665 | 28 ft | 16 kts | 37° |
| 2026-05-07 02:10 | 40.65108 | -73.79539 | 28 ft | 17 kts | 60° |
| 2026-05-07 02:10 | 40.65175 | -73.79386 | 27 ft | 21 kts | 60° |
| 2026-05-07 02:10 | 40.65207 | -73.79233 | 24 ft | 15 kts | 95° |
| 2026-05-07 02:11 | 40.65182 | -73.79092 | 27 ft | 17 kts | 106° |
| 2026-05-07 02:11 | 40.65148 | -73.78938 | 29 ft | 18 kts | 104° |
| 2026-05-07 02:11 | 40.65145 | -73.78785 | 28 ft | 17 kts | 76° |
| 2026-05-07 02:11 | 40.65197 | -73.78630 | 27 ft | 20 kts | 60° |
| 2026-05-07 02:12 | 40.65259 | -73.78474 | 28 ft | 17 kts | 75° |
| 2026-05-07 02:12 | 40.65241 | -73.78320 | 29 ft | 18 kts | 118° |
| 2026-05-07 02:12 | 40.65175 | -73.78176 | 28 ft | 19 kts | 122° |
| 2026-05-07 02:12 | 40.65106 | -73.78023 | 28 ft | 20 kts | 121° |
| 2026-05-07 02:13 | 40.65036 | -73.77866 | 29 ft | 21 kts | 120° |
| 2026-05-07 02:13 | 40.64961 | -73.77701 | 28 ft | 21 kts | 121° |
| 2026-05-07 02:13 | 40.64885 | -73.77534 | 28 ft | 21 kts | 122° |
| 2026-05-07 02:13 | 40.64819 | -73.77390 | 28 ft | 11 kts | 115° |
| 2026-05-07 02:14 | 40.64801 | -73.77336 | 30 ft | 12 kts | 120° |
| 2026-05-07 02:14 | 40.64757 | -73.77233 | 30 ft | 11 kts | 102° |
| 2026-05-07 02:14 | 40.64789 | -73.77142 | 30 ft | 13 kts | 55° |
| 2026-05-07 02:14 | 40.64849 | -73.77029 | 26 ft | 17 kts | 54° |
| 2026-05-07 02:15 | 40.64910 | -73.76915 | 26 ft | 14 kts | 54° |
| 2026-05-07 02:15 | 40.64908 | -73.76827 | 26 ft | 11 kts | 114° |
| 2026-05-07 02:15 | 40.64877 | -73.76735 | 27 ft | 6 kts | 95° |
| 2026-05-07 02:15 | 40.64890 | -73.76700 | 26 ft | 7 kts | 39° |
| 2026-05-07 02:16 | 40.64966 | -73.76631 | 26 ft | 17 kts | 32° |
| 2026-05-07 02:16 | 40.65061 | -73.76558 | 26 ft | 11 kts | 30° |
| 2026-05-07 02:16 | 40.65100 | -73.76519 | 27 ft | 7 kts | 61° |
| 2026-05-07 02:16 | 40.65096 | -73.76458 | 27 ft | 8 kts | 113° |
| 2026-05-07 02:17 | 40.65064 | -73.76386 | 27 ft | 10 kts | 135° |
| 2026-05-07 02:17 | 40.65013 | -73.76370 | 27 ft | 7 kts | 204° |
| 2026-05-07 02:17 | 40.64834 | -73.76500 | 26 ft | 67 kts | 210° |
| 2026-05-07 02:17 | 40.64202 | -73.76992 | 32 ft | 139 kts | 210° |
| 2026-05-07 02:18 | 40.63278 | -73.77710 | 329 ft | 157 kts | 210° |
| 2026-05-07 02:18 | 40.62327 | -73.78414 | 1008 ft | 156 kts | 211° |
| 2026-05-07 02:18 | 40.61387 | -73.79071 | 1741 ft | 151 kts | 213° |
| 2026-05-07 02:18 | 40.60411 | -73.79705 | 2173 ft | 166 kts | 211° |
| 2026-05-07 02:19 | 40.59302 | -73.80400 | 2528 ft | 191 kts | 212° |
| 2026-05-07 02:19 | 40.58036 | -73.81207 | 3191 ft | 210 kts | 212° |
| 2026-05-07 02:19 | 40.56738 | -73.82246 | 3826 ft | 226 kts | 229° |
| 2026-05-07 02:19 | 40.55743 | -73.83904 | 4539 ft | 239 kts | 237° |
| 2026-05-07 02:20 | 40.54795 | -73.85726 | 5578 ft | 240 kts | 238° |
| 2026-05-07 02:20 | 40.53852 | -73.87547 | 6652 ft | 240 kts | 238° |